sensor_id;sensor_type;location;lat;lon;timestamp;P1;durP1;ratioP1;P2;durP2;ratioP2
4732;SDS011;2380;53.668;10.008;2023-09-18T00:02:24;11.20;;;6.60;;
4732;SDS011;2380;53.668;10.008;2023-09-18T00:04:54;11.37;;;7.00;;
4732;SDS011;2380;53.668;10.008;2023-09-18T00:07:27;8.00;;;5.73;;
4732;SDS011;2380;53.668;10.008;2023-09-18T00:09:56;10.00;;;6.67;;
4732;SDS011;2380;53.668;10.008;2023-09-18T00:12:26;8.40;;;5.40;;
4732;SDS011;2380;53.668;10.008;2023-09-18T00:14:55;9.47;;;6.87;;
4732;SDS011;2380;53.668;10.008;2023-09-18T00:17:25;8.70;;;6.20;;
4732;SDS011;2380;53.668;10.008;2023-09-18T00:19:55;8.03;;;5.90;;
4732;SDS011;2380;53.668;10.008;2023-09-18T00:22:27;9.13;;;5.93;;
4732;SDS011;2380;53.668;10.008;2023-09-18T00:24:57;7.83;;;5.87;;
4732;SDS011;2380;53.668;10.008;2023-09-18T00:27:28;8.27;;;5.80;;
4732;SDS011;2380;53.668;10.008;2023-09-18T00:29:59;10.33;;;6.73;;
4732;SDS011;2380;53.668;10.008;2023-09-18T00:32:29;8.00;;;5.87;;
4732;SDS011;2380;53.668;10.008;2023-09-18T00:34:59;9.30;;;6.77;;
4732;SDS011;2380;53.668;10.008;2023-09-18T00:37:31;9.27;;;6.40;;
4732;SDS011;2380;53.668;10.008;2023-09-18T00:40:03;8.40;;;6.17;;
4732;SDS011;2380;53.668;10.008;2023-09-18T00:42:34;12.93;;;6.27;;
4732;SDS011;2380;53.668;10.008;2023-09-18T00:45:03;8.80;;;5.40;;
4732;SDS011;2380;53.668;10.008;2023-09-18T00:47:34;10.07;;;6.30;;
4732;SDS011;2380;53.668;10.008;2023-09-18T00:50:05;10.13;;;7.20;;
4732;SDS011;2380;53.668;10.008;2023-09-18T00:52:38;8.90;;;6.50;;
4732;SDS011;2380;53.668;10.008;2023-09-18T00:55:08;9.00;;;6.20;;
4732;SDS011;2380;53.668;10.008;2023-09-18T00:57:39;10.27;;;6.47;;
4732;SDS011;2380;53.668;10.008;2023-09-18T01:00:09;11.00;;;6.70;;
4732;SDS011;2380;53.668;10.008;2023-09-18T01:02:41;9.93;;;6.10;;
4732;SDS011;2380;53.668;10.008;2023-09-18T01:05:12;11.93;;;6.57;;
4732;SDS011;2380;53.668;10.008;2023-09-18T01:07:45;9.60;;;6.10;;
4732;SDS011;2380;53.668;10.008;2023-09-18T01:10:15;9.50;;;6.10;;
4732;SDS011;2380;53.668;10.008;2023-09-18T01:12:46;9.00;;;6.40;;
4732;SDS011;2380;53.668;10.008;2023-09-18T01:15:20;10.60;;;6.63;;
4732;SDS011;2380;53.668;10.008;2023-09-18T01:17:52;9.40;;;6.90;;
4732;SDS011;2380;53.668;10.008;2023-09-18T01:20:22;8.33;;;5.83;;
4732;SDS011;2380;53.668;10.008;2023-09-18T01:22:54;9.83;;;6.80;;
4732;SDS011;2380;53.668;10.008;2023-09-18T01:25:24;10.70;;;6.67;;
4732;SDS011;2380;53.668;10.008;2023-09-18T01:27:54;11.07;;;7.23;;
4732;SDS011;2380;53.668;10.008;2023-09-18T01:30:23;11.47;;;6.77;;
4732;SDS011;2380;53.668;10.008;2023-09-18T01:32:53;10.30;;;6.67;;
4732;SDS011;2380;53.668;10.008;2023-09-18T01:35:24;11.27;;;6.60;;
4732;SDS011;2380;53.668;10.008;2023-09-18T01:37:59;11.33;;;7.00;;
4732;SDS011;2380;53.668;10.008;2023-09-18T01:40:29;10.03;;;7.07;;
4732;SDS011;2380;53.668;10.008;2023-09-18T01:43:00;9.33;;;6.10;;
4732;SDS011;2380;53.668;10.008;2023-09-18T01:45:29;10.30;;;6.77;;
4732;SDS011;2380;53.668;10.008;2023-09-18T01:47:59;9.50;;;6.77;;
4732;SDS011;2380;53.668;10.008;2023-09-18T01:50:29;9.53;;;6.97;;
4732;SDS011;2380;53.668;10.008;2023-09-18T01:53:01;10.10;;;6.37;;
4732;SDS011;2380;53.668;10.008;2023-09-18T01:55:31;10.00;;;6.73;;
4732;SDS011;2380;53.668;10.008;2023-09-18T01:58:00;11.23;;;7.27;;
4732;SDS011;2380;53.668;10.008;2023-09-18T02:00:31;11.57;;;6.80;;
4732;SDS011;2380;53.668;10.008;2023-09-18T02:03:01;12.00;;;7.43;;
4732;SDS011;2380;53.668;10.008;2023-09-18T02:05:51;9.07;;;6.37;;
4732;SDS011;2380;53.668;10.008;2023-09-18T02:08:23;10.10;;;7.27;;
4732;SDS011;2380;53.668;10.008;2023-09-18T02:10:53;9.90;;;6.97;;
4732;SDS011;2380;53.668;10.008;2023-09-18T02:13:23;11.83;;;5.97;;
4732;SDS011;2380;53.668;10.008;2023-09-18T02:15:53;10.90;;;6.87;;
4732;SDS011;2380;53.668;10.008;2023-09-18T02:18:24;11.30;;;7.20;;
4732;SDS011;2380;53.668;10.008;2023-09-18T02:20:53;12.93;;;7.37;;
4732;SDS011;2380;53.668;10.008;2023-09-18T02:23:26;9.07;;;6.77;;
4732;SDS011;2380;53.668;10.008;2023-09-18T02:25:56;8.10;;;5.70;;
4732;SDS011;2380;53.668;10.008;2023-09-18T02:28:25;8.50;;;6.57;;
4732;SDS011;2380;53.668;10.008;2023-09-18T02:30:55;12.00;;;7.20;;
4732;SDS011;2380;53.668;10.008;2023-09-18T02:33:25;9.07;;;6.40;;
4732;SDS011;2380;53.668;10.008;2023-09-18T02:35:54;7.60;;;5.80;;
4732;SDS011;2380;53.668;10.008;2023-09-18T02:38:27;14.53;;;7.73;;
4732;SDS011;2380;53.668;10.008;2023-09-18T02:40:57;10.60;;;6.93;;
4732;SDS011;2380;53.668;10.008;2023-09-18T02:43:27;9.17;;;6.43;;
4732;SDS011;2380;53.668;10.008;2023-09-18T02:45:57;10.47;;;7.30;;
4732;SDS011;2380;53.668;10.008;2023-09-18T02:48:26;11.53;;;7.07;;
4732;SDS011;2380;53.668;10.008;2023-09-18T02:50:56;10.50;;;6.97;;
4732;SDS011;2380;53.668;10.008;2023-09-18T02:53:31;10.63;;;6.97;;
4732;SDS011;2380;53.668;10.008;2023-09-18T02:56:01;12.20;;;8.13;;
4732;SDS011;2380;53.668;10.008;2023-09-18T02:58:30;9.40;;;6.83;;
4732;SDS011;2380;53.668;10.008;2023-09-18T03:01:00;11.47;;;7.27;;
4732;SDS011;2380;53.668;10.008;2023-09-18T03:03:31;11.23;;;7.40;;
4732;SDS011;2380;53.668;10.008;2023-09-18T03:06:02;10.93;;;7.83;;
4732;SDS011;2380;53.668;10.008;2023-09-18T03:08:35;10.17;;;6.40;;
4732;SDS011;2380;53.668;10.008;2023-09-18T03:11:10;9.93;;;7.30;;
4732;SDS011;2380;53.668;10.008;2023-09-18T03:13:43;11.33;;;7.10;;
4732;SDS011;2380;53.668;10.008;2023-09-18T03:16:14;10.37;;;7.13;;
4732;SDS011;2380;53.668;10.008;2023-09-18T03:18:44;9.50;;;6.50;;
4732;SDS011;2380;53.668;10.008;2023-09-18T03:21:13;12.63;;;6.90;;
4732;SDS011;2380;53.668;10.008;2023-09-18T03:23:45;9.77;;;6.97;;
4732;SDS011;2380;53.668;10.008;2023-09-18T03:26:15;10.07;;;7.57;;
4732;SDS011;2380;53.668;10.008;2023-09-18T03:28:45;10.57;;;7.03;;
4732;SDS011;2380;53.668;10.008;2023-09-18T03:31:14;9.40;;;7.00;;
4732;SDS011;2380;53.668;10.008;2023-09-18T03:33:44;12.20;;;7.40;;
4732;SDS011;2380;53.668;10.008;2023-09-18T03:36:14;10.40;;;7.57;;
4732;SDS011;2380;53.668;10.008;2023-09-18T03:38:46;11.93;;;7.70;;
4732;SDS011;2380;53.668;10.008;2023-09-18T03:41:16;48.23;;;27.80;;
4732;SDS011;2380;53.668;10.008;2023-09-18T03:43:45;43.23;;;25.70;;
4732;SDS011;2380;53.668;10.008;2023-09-18T03:46:15;30.93;;;18.83;;
4732;SDS011;2380;53.668;10.008;2023-09-18T03:48:45;43.87;;;25.07;;
4732;SDS011;2380;53.668;10.008;2023-09-18T03:51:14;23.77;;;14.80;;
4732;SDS011;2380;53.668;10.008;2023-09-18T03:53:47;20.47;;;13.03;;
4732;SDS011;2380;53.668;10.008;2023-09-18T03:56:17;12.97;;;8.60;;
4732;SDS011;2380;53.668;10.008;2023-09-18T03:58:48;17.33;;;11.37;;
4732;SDS011;2380;53.668;10.008;2023-09-18T04:01:18;11.63;;;7.70;;
4732;SDS011;2380;53.668;10.008;2023-09-18T04:03:48;11.10;;;7.93;;
4732;SDS011;2380;53.668;10.008;2023-09-18T04:06:17;11.20;;;7.57;;
4732;SDS011;2380;53.668;10.008;2023-09-18T04:08:50;11.10;;;7.73;;
4732;SDS011;2380;53.668;10.008;2023-09-18T04:11:20;10.30;;;7.33;;
4732;SDS011;2380;53.668;10.008;2023-09-18T04:13:52;11.87;;;8.47;;
4732;SDS011;2380;53.668;10.008;2023-09-18T04:16:22;11.10;;;7.33;;
4732;SDS011;2380;53.668;10.008;2023-09-18T04:18:52;14.20;;;7.77;;
4732;SDS011;2380;53.668;10.008;2023-09-18T04:21:22;11.53;;;8.10;;
4732;SDS011;2380;53.668;10.008;2023-09-18T04:23:54;13.50;;;8.00;;
4732;SDS011;2380;53.668;10.008;2023-09-18T04:26:25;11.47;;;7.33;;
4732;SDS011;2380;53.668;10.008;2023-09-18T04:28:56;11.63;;;7.50;;
4732;SDS011;2380;53.668;10.008;2023-09-18T04:31:26;12.07;;;8.30;;
4732;SDS011;2380;53.668;10.008;2023-09-18T04:33:56;10.33;;;7.20;;
4732;SDS011;2380;53.668;10.008;2023-09-18T04:36:26;12.87;;;9.47;;
4732;SDS011;2380;53.668;10.008;2023-09-18T04:38:58;12.60;;;8.87;;
4732;SDS011;2380;53.668;10.008;2023-09-18T04:41:27;11.80;;;8.10;;
4732;SDS011;2380;53.668;10.008;2023-09-18T04:43:57;12.50;;;8.07;;
4732;SDS011;2380;53.668;10.008;2023-09-18T04:46:27;16.30;;;10.30;;
4732;SDS011;2380;53.668;10.008;2023-09-18T04:48:57;15.67;;;10.73;;
4732;SDS011;2380;53.668;10.008;2023-09-18T04:51:26;15.97;;;9.43;;
4732;SDS011;2380;53.668;10.008;2023-09-18T04:53:59;13.90;;;9.10;;
4732;SDS011;2380;53.668;10.008;2023-09-18T04:56:28;15.83;;;9.70;;
4732;SDS011;2380;53.668;10.008;2023-09-18T04:58:58;11.63;;;7.53;;
4732;SDS011;2380;53.668;10.008;2023-09-18T05:01:28;13.10;;;8.30;;
4732;SDS011;2380;53.668;10.008;2023-09-18T05:03:58;10.40;;;6.93;;
4732;SDS011;2380;53.668;10.008;2023-09-18T05:06:28;12.60;;;7.70;;
4732;SDS011;2380;53.668;10.008;2023-09-18T05:09:01;15.67;;;10.00;;
4732;SDS011;2380;53.668;10.008;2023-09-18T05:11:30;12.50;;;8.47;;
4732;SDS011;2380;53.668;10.008;2023-09-18T05:14:00;12.13;;;8.40;;
4732;SDS011;2380;53.668;10.008;2023-09-18T05:16:30;27.67;;;16.57;;
4732;SDS011;2380;53.668;10.008;2023-09-18T05:19:01;16.80;;;10.87;;
4732;SDS011;2380;53.668;10.008;2023-09-18T05:21:31;31.00;;;18.97;;
4732;SDS011;2380;53.668;10.008;2023-09-18T05:24:06;13.73;;;9.50;;
4732;SDS011;2380;53.668;10.008;2023-09-18T05:26:36;15.80;;;9.67;;
4732;SDS011;2380;53.668;10.008;2023-09-18T05:29:06;12.00;;;8.77;;
4732;SDS011;2380;53.668;10.008;2023-09-18T05:31:36;10.40;;;7.70;;
4732;SDS011;2380;53.668;10.008;2023-09-18T05:34:06;12.37;;;7.77;;
4732;SDS011;2380;53.668;10.008;2023-09-18T05:36:36;9.53;;;6.80;;
4732;SDS011;2380;53.668;10.008;2023-09-18T05:39:08;12.00;;;8.10;;
4732;SDS011;2380;53.668;10.008;2023-09-18T05:41:39;10.90;;;8.17;;
4732;SDS011;2380;53.668;10.008;2023-09-18T05:44:09;9.33;;;7.20;;
4732;SDS011;2380;53.668;10.008;2023-09-18T05:46:39;15.10;;;7.73;;
4732;SDS011;2380;53.668;10.008;2023-09-18T05:49:08;15.03;;;7.03;;
4732;SDS011;2380;53.668;10.008;2023-09-18T05:51:38;10.93;;;7.30;;
4732;SDS011;2380;53.668;10.008;2023-09-18T05:54:11;10.80;;;7.30;;
4732;SDS011;2380;53.668;10.008;2023-09-18T05:56:40;10.97;;;7.47;;
4732;SDS011;2380;53.668;10.008;2023-09-18T05:59:10;11.60;;;8.47;;
4732;SDS011;2380;53.668;10.008;2023-09-18T06:01:42;10.67;;;7.53;;
4732;SDS011;2380;53.668;10.008;2023-09-18T06:04:12;11.53;;;7.83;;
4732;SDS011;2380;53.668;10.008;2023-09-18T06:06:43;11.70;;;7.70;;
4732;SDS011;2380;53.668;10.008;2023-09-18T06:09:15;12.00;;;9.00;;
4732;SDS011;2380;53.668;10.008;2023-09-18T06:11:45;16.63;;;10.40;;
4732;SDS011;2380;53.668;10.008;2023-09-18T06:14:15;8.73;;;6.80;;
4732;SDS011;2380;53.668;10.008;2023-09-18T06:16:44;11.43;;;7.93;;
4732;SDS011;2380;53.668;10.008;2023-09-18T06:19:14;13.47;;;7.60;;
4732;SDS011;2380;53.668;10.008;2023-09-18T06:21:44;11.53;;;7.60;;
4732;SDS011;2380;53.668;10.008;2023-09-18T06:24:16;12.07;;;7.30;;
4732;SDS011;2380;53.668;10.008;2023-09-18T06:26:46;11.33;;;6.93;;
4732;SDS011;2380;53.668;10.008;2023-09-18T06:29:17;9.20;;;6.67;;
4732;SDS011;2380;53.668;10.008;2023-09-18T06:31:46;11.30;;;7.40;;
4732;SDS011;2380;53.668;10.008;2023-09-18T06:34:16;10.33;;;6.93;;
4732;SDS011;2380;53.668;10.008;2023-09-18T06:36:46;11.63;;;7.70;;
4732;SDS011;2380;53.668;10.008;2023-09-18T06:39:19;14.27;;;8.37;;
4732;SDS011;2380;53.668;10.008;2023-09-18T06:41:49;16.40;;;7.80;;
4732;SDS011;2380;53.668;10.008;2023-09-18T06:44:18;11.57;;;7.80;;
4732;SDS011;2380;53.668;10.008;2023-09-18T06:46:50;10.90;;;7.57;;
4732;SDS011;2380;53.668;10.008;2023-09-18T06:49:20;10.30;;;6.87;;
4732;SDS011;2380;53.668;10.008;2023-09-18T06:51:49;11.80;;;6.40;;
4732;SDS011;2380;53.668;10.008;2023-09-18T06:54:21;10.30;;;7.10;;
4732;SDS011;2380;53.668;10.008;2023-09-18T06:56:51;10.17;;;7.37;;
4732;SDS011;2380;53.668;10.008;2023-09-18T06:59:20;12.70;;;6.83;;
4732;SDS011;2380;53.668;10.008;2023-09-18T07:01:50;9.40;;;6.80;;
4732;SDS011;2380;53.668;10.008;2023-09-18T07:04:20;13.03;;;7.37;;
4732;SDS011;2380;53.668;10.008;2023-09-18T07:06:49;12.63;;;7.90;;
4732;SDS011;2380;53.668;10.008;2023-09-18T07:09:22;9.93;;;6.83;;
4732;SDS011;2380;53.668;10.008;2023-09-18T07:11:52;9.67;;;7.37;;
4732;SDS011;2380;53.668;10.008;2023-09-18T07:14:22;13.27;;;6.87;;
4732;SDS011;2380;53.668;10.008;2023-09-18T07:16:51;9.70;;;6.67;;
4732;SDS011;2380;53.668;10.008;2023-09-18T07:19:21;8.63;;;6.80;;
4732;SDS011;2380;53.668;10.008;2023-09-18T07:21:52;10.10;;;7.20;;
4732;SDS011;2380;53.668;10.008;2023-09-18T07:24:24;9.73;;;6.13;;
4732;SDS011;2380;53.668;10.008;2023-09-18T07:26:54;11.37;;;8.07;;
4732;SDS011;2380;53.668;10.008;2023-09-18T07:29:24;11.40;;;6.90;;
4732;SDS011;2380;53.668;10.008;2023-09-18T07:31:54;9.50;;;6.60;;
4732;SDS011;2380;53.668;10.008;2023-09-18T07:34:23;8.33;;;5.83;;
4732;SDS011;2380;53.668;10.008;2023-09-18T07:36:53;10.80;;;6.90;;
4732;SDS011;2380;53.668;10.008;2023-09-18T07:39:25;9.63;;;6.80;;
4732;SDS011;2380;53.668;10.008;2023-09-18T07:41:56;9.87;;;6.80;;
4732;SDS011;2380;53.668;10.008;2023-09-18T07:44:25;8.27;;;6.13;;
4732;SDS011;2380;53.668;10.008;2023-09-18T07:46:55;12.47;;;8.10;;
4732;SDS011;2380;53.668;10.008;2023-09-18T07:49:24;9.70;;;6.70;;
4732;SDS011;2380;53.668;10.008;2023-09-18T07:51:54;10.90;;;7.00;;
4732;SDS011;2380;53.668;10.008;2023-09-18T07:54:26;10.53;;;6.40;;
4732;SDS011;2380;53.668;10.008;2023-09-18T07:56:56;11.20;;;7.10;;
4732;SDS011;2380;53.668;10.008;2023-09-18T07:59:26;9.17;;;6.40;;
4732;SDS011;2380;53.668;10.008;2023-09-18T08:01:56;8.80;;;6.50;;
4732;SDS011;2380;53.668;10.008;2023-09-18T08:04:26;8.30;;;6.60;;
4732;SDS011;2380;53.668;10.008;2023-09-18T08:06:56;13.00;;;6.13;;
4732;SDS011;2380;53.668;10.008;2023-09-18T08:09:29;15.30;;;6.67;;
4732;SDS011;2380;53.668;10.008;2023-09-18T08:11:59;14.83;;;5.87;;
4732;SDS011;2380;53.668;10.008;2023-09-18T08:14:29;15.43;;;8.60;;
4732;SDS011;2380;53.668;10.008;2023-09-18T08:17:01;9.17;;;6.23;;
4732;SDS011;2380;53.668;10.008;2023-09-18T08:19:36;10.17;;;7.00;;
4732;SDS011;2380;53.668;10.008;2023-09-18T08:22:06;11.40;;;7.53;;
4732;SDS011;2380;53.668;10.008;2023-09-18T08:24:39;9.40;;;6.33;;
4732;SDS011;2380;53.668;10.008;2023-09-18T08:27:08;9.53;;;6.40;;
4732;SDS011;2380;53.668;10.008;2023-09-18T08:29:38;9.90;;;6.70;;
4732;SDS011;2380;53.668;10.008;2023-09-18T08:32:08;8.50;;;6.00;;
4732;SDS011;2380;53.668;10.008;2023-09-18T08:34:37;11.33;;;7.30;;
4732;SDS011;2380;53.668;10.008;2023-09-18T08:37:07;11.97;;;6.70;;
4732;SDS011;2380;53.668;10.008;2023-09-18T08:39:40;12.07;;;6.80;;
4732;SDS011;2380;53.668;10.008;2023-09-18T08:42:09;8.60;;;6.17;;
4732;SDS011;2380;53.668;10.008;2023-09-18T08:44:40;10.83;;;5.60;;
4732;SDS011;2380;53.668;10.008;2023-09-18T08:47:11;10.87;;;5.90;;
4732;SDS011;2380;53.668;10.008;2023-09-18T08:49:41;9.83;;;5.60;;
4732;SDS011;2380;53.668;10.008;2023-09-18T08:52:12;9.17;;;5.20;;
4732;SDS011;2380;53.668;10.008;2023-09-18T08:54:44;7.50;;;5.23;;
4732;SDS011;2380;53.668;10.008;2023-09-18T08:57:15;11.00;;;7.20;;
4732;SDS011;2380;53.668;10.008;2023-09-18T08:59:44;9.20;;;5.97;;
4732;SDS011;2380;53.668;10.008;2023-09-18T09:02:15;8.90;;;5.80;;
4732;SDS011;2380;53.668;10.008;2023-09-18T09:04:45;8.90;;;5.70;;
4732;SDS011;2380;53.668;10.008;2023-09-18T09:07:18;8.00;;;5.60;;
4732;SDS011;2380;53.668;10.008;2023-09-18T09:09:50;10.30;;;5.90;;
4732;SDS011;2380;53.668;10.008;2023-09-18T09:15:28;9.00;;;5.43;;
4732;SDS011;2380;53.668;10.008;2023-09-18T09:18:02;10.07;;;6.50;;
4732;SDS011;2380;53.668;10.008;2023-09-18T09:20:34;11.20;;;6.20;;
4732;SDS011;2380;53.668;10.008;2023-09-18T09:23:05;13.30;;;8.23;;
4732;SDS011;2380;53.668;10.008;2023-09-18T09:25:38;10.77;;;5.73;;
4732;SDS011;2380;53.668;10.008;2023-09-18T09:28:07;10.57;;;6.23;;
4732;SDS011;2380;53.668;10.008;2023-09-18T09:30:37;9.27;;;6.20;;
4732;SDS011;2380;53.668;10.008;2023-09-18T09:33:06;9.30;;;5.67;;
4732;SDS011;2380;53.668;10.008;2023-09-18T09:35:37;10.57;;;7.17;;
4732;SDS011;2380;53.668;10.008;2023-09-18T09:38:08;10.77;;;6.47;;
4732;SDS011;2380;53.668;10.008;2023-09-18T09:40:43;8.20;;;5.60;;
4732;SDS011;2380;53.668;10.008;2023-09-18T09:43:13;7.63;;;5.17;;
4732;SDS011;2380;53.668;10.008;2023-09-18T09:45:44;10.80;;;6.90;;
4732;SDS011;2380;53.668;10.008;2023-09-18T09:48:15;11.13;;;6.50;;
4732;SDS011;2380;53.668;10.008;2023-09-18T09:50:47;13.77;;;8.37;;
4732;SDS011;2380;53.668;10.008;2023-09-18T09:53:18;10.40;;;7.03;;
4732;SDS011;2380;53.668;10.008;2023-09-18T09:55:55;8.37;;;5.43;;
4732;SDS011;2380;53.668;10.008;2023-09-18T09:58:26;9.57;;;6.03;;
4732;SDS011;2380;53.668;10.008;2023-09-18T10:00:58;15.70;;;8.63;;
4732;SDS011;2380;53.668;10.008;2023-09-18T10:03:35;8.13;;;5.87;;
4732;SDS011;2380;53.668;10.008;2023-09-18T10:06:06;11.80;;;5.90;;
4732;SDS011;2380;53.668;10.008;2023-09-18T10:08:36;13.33;;;5.63;;
4732;SDS011;2380;53.668;10.008;2023-09-18T10:11:10;14.40;;;8.00;;
4732;SDS011;2380;53.668;10.008;2023-09-18T10:13:45;8.83;;;5.60;;
4732;SDS011;2380;53.668;10.008;2023-09-18T10:16:16;16.03;;;5.77;;
4732;SDS011;2380;53.668;10.008;2023-09-18T10:18:51;13.27;;;6.60;;
4732;SDS011;2380;53.668;10.008;2023-09-18T10:21:26;10.87;;;6.00;;
4732;SDS011;2380;53.668;10.008;2023-09-18T10:24:04;8.23;;;5.47;;
4732;SDS011;2380;53.668;10.008;2023-09-18T10:26:46;24.43;;;12.20;;
4732;SDS011;2380;53.668;10.008;2023-09-18T10:29:21;18.43;;;9.77;;
4732;SDS011;2380;53.668;10.008;2023-09-18T10:31:51;19.97;;;9.53;;
4732;SDS011;2380;53.668;10.008;2023-09-18T10:34:22;13.87;;;5.43;;
4732;SDS011;2380;53.668;10.008;2023-09-18T10:36:53;9.10;;;5.43;;
4732;SDS011;2380;53.668;10.008;2023-09-18T10:39:24;16.37;;;8.43;;
4732;SDS011;2380;53.668;10.008;2023-09-18T10:42:00;9.60;;;4.93;;
4732;SDS011;2380;53.668;10.008;2023-09-18T10:44:33;10.40;;;6.03;;
4732;SDS011;2380;53.668;10.008;2023-09-18T10:47:03;12.37;;;6.47;;
4732;SDS011;2380;53.668;10.008;2023-09-18T10:49:34;9.60;;;5.10;;
4732;SDS011;2380;53.668;10.008;2023-09-18T10:52:04;15.53;;;7.07;;
4732;SDS011;2380;53.668;10.008;2023-09-18T10:54:34;10.60;;;5.90;;
4732;SDS011;2380;53.668;10.008;2023-09-18T10:57:07;9.40;;;5.27;;
4732;SDS011;2380;53.668;10.008;2023-09-18T10:59:42;11.73;;;5.40;;
4732;SDS011;2380;53.668;10.008;2023-09-18T11:02:14;14.20;;;6.67;;
4732;SDS011;2380;53.668;10.008;2023-09-18T11:04:44;14.30;;;7.00;;
4732;SDS011;2380;53.668;10.008;2023-09-18T11:07:20;20.60;;;10.17;;
4732;SDS011;2380;53.668;10.008;2023-09-18T11:09:51;19.83;;;8.57;;
4732;SDS011;2380;53.668;10.008;2023-09-18T11:12:42;17.40;;;8.27;;
4732;SDS011;2380;53.668;10.008;2023-09-18T11:15:24;19.90;;;8.33;;
4732;SDS011;2380;53.668;10.008;2023-09-18T11:17:58;26.00;;;10.17;;
4732;SDS011;2380;53.668;10.008;2023-09-18T11:20:33;9.90;;;4.47;;
4732;SDS011;2380;53.668;10.008;2023-09-18T11:23:09;17.00;;;7.43;;
4732;SDS011;2380;53.668;10.008;2023-09-18T11:25:45;10.47;;;4.50;;
4732;SDS011;2380;53.668;10.008;2023-09-18T11:28:24;9.27;;;4.93;;
4732;SDS011;2380;53.668;10.008;2023-09-18T11:30:59;11.30;;;4.60;;
4732;SDS011;2380;53.668;10.008;2023-09-18T11:33:29;21.90;;;9.43;;
4732;SDS011;2380;53.668;10.008;2023-09-18T11:36:02;22.70;;;9.50;;
4732;SDS011;2380;53.668;10.008;2023-09-18T11:38:47;9.97;;;5.47;;
4732;SDS011;2380;53.668;10.008;2023-09-18T11:41:24;10.13;;;5.13;;
4732;SDS011;2380;53.668;10.008;2023-09-18T11:47:09;14.10;;;4.87;;
4732;SDS011;2380;53.668;10.008;2023-09-18T11:49:48;12.60;;;5.37;;
4732;SDS011;2380;53.668;10.008;2023-09-18T11:52:21;13.20;;;4.50;;
4732;SDS011;2380;53.668;10.008;2023-09-18T11:54:52;7.23;;;4.27;;
4732;SDS011;2380;53.668;10.008;2023-09-18T11:57:22;13.73;;;5.70;;
4732;SDS011;2380;53.668;10.008;2023-09-18T11:59:54;21.87;;;9.23;;
4732;SDS011;2380;53.668;10.008;2023-09-18T12:02:27;17.30;;;7.80;;
4732;SDS011;2380;53.668;10.008;2023-09-18T12:05:05;14.10;;;6.80;;
4732;SDS011;2380;53.668;10.008;2023-09-18T12:07:39;23.67;;;10.17;;
4732;SDS011;2380;53.668;10.008;2023-09-18T12:10:10;16.10;;;4.50;;
4732;SDS011;2380;53.668;10.008;2023-09-18T12:12:41;18.70;;;7.10;;
4732;SDS011;2380;53.668;10.008;2023-09-18T12:15:16;10.13;;;5.00;;
4732;SDS011;2380;53.668;10.008;2023-09-18T12:17:46;16.63;;;6.77;;
4732;SDS011;2380;53.668;10.008;2023-09-18T12:20:16;16.70;;;7.90;;
4732;SDS011;2380;53.668;10.008;2023-09-18T12:22:48;17.63;;;7.80;;
4732;SDS011;2380;53.668;10.008;2023-09-18T12:25:18;12.80;;;5.20;;
4732;SDS011;2380;53.668;10.008;2023-09-18T12:27:51;9.37;;;3.63;;
4732;SDS011;2380;53.668;10.008;2023-09-18T12:30:23;9.63;;;5.00;;
4732;SDS011;2380;53.668;10.008;2023-09-18T12:32:52;17.63;;;5.50;;
4732;SDS011;2380;53.668;10.008;2023-09-18T12:35:27;11.40;;;4.90;;
4732;SDS011;2380;53.668;10.008;2023-09-18T12:37:58;17.87;;;8.03;;
4732;SDS011;2380;53.668;10.008;2023-09-18T12:40:31;11.20;;;4.87;;
4732;SDS011;2380;53.668;10.008;2023-09-18T12:43:02;18.13;;;7.40;;
4732;SDS011;2380;53.668;10.008;2023-09-18T12:45:35;13.27;;;4.67;;
4732;SDS011;2380;53.668;10.008;2023-09-18T12:48:05;8.67;;;3.13;;
4732;SDS011;2380;53.668;10.008;2023-09-18T12:50:35;15.90;;;6.57;;
4732;SDS011;2380;53.668;10.008;2023-09-18T12:53:06;10.93;;;5.00;;
4732;SDS011;2380;53.668;10.008;2023-09-18T12:55:37;27.23;;;12.43;;
4732;SDS011;2380;53.668;10.008;2023-09-18T12:58:09;31.73;;;14.53;;
4732;SDS011;2380;53.668;10.008;2023-09-18T13:00:47;11.00;;;4.57;;
4732;SDS011;2380;53.668;10.008;2023-09-18T13:03:17;18.73;;;6.50;;
4732;SDS011;2380;53.668;10.008;2023-09-18T13:05:48;21.07;;;9.17;;
4732;SDS011;2380;53.668;10.008;2023-09-18T13:08:21;17.30;;;5.80;;
4732;SDS011;2380;53.668;10.008;2023-09-18T13:10:51;12.73;;;6.23;;
4732;SDS011;2380;53.668;10.008;2023-09-18T13:13:21;6.53;;;3.43;;
4732;SDS011;2380;53.668;10.008;2023-09-18T13:15:56;13.90;;;4.00;;
4732;SDS011;2380;53.668;10.008;2023-09-18T13:18:27;10.63;;;4.73;;
4732;SDS011;2380;53.668;10.008;2023-09-18T13:20:56;20.20;;;7.20;;
4732;SDS011;2380;53.668;10.008;2023-09-18T13:23:29;14.30;;;6.20;;
4732;SDS011;2380;53.668;10.008;2023-09-18T13:26:00;21.00;;;9.03;;
4732;SDS011;2380;53.668;10.008;2023-09-18T13:28:30;14.10;;;4.90;;
4732;SDS011;2380;53.668;10.008;2023-09-18T13:31:04;16.80;;;7.43;;
4732;SDS011;2380;53.668;10.008;2023-09-18T13:33:38;13.23;;;5.63;;
4732;SDS011;2380;53.668;10.008;2023-09-18T13:36:11;15.07;;;6.10;;
4732;SDS011;2380;53.668;10.008;2023-09-18T13:38:41;19.00;;;10.00;;
4732;SDS011;2380;53.668;10.008;2023-09-18T13:41:11;24.30;;;12.10;;
4732;SDS011;2380;53.668;10.008;2023-09-18T13:43:41;11.57;;;4.43;;
4732;SDS011;2380;53.668;10.008;2023-09-18T13:46:14;21.13;;;7.13;;
4732;SDS011;2380;53.668;10.008;2023-09-18T13:48:44;10.23;;;3.80;;
4732;SDS011;2380;53.668;10.008;2023-09-18T13:51:14;14.37;;;4.67;;
4732;SDS011;2380;53.668;10.008;2023-09-18T13:53:43;20.70;;;8.83;;
4732;SDS011;2380;53.668;10.008;2023-09-18T13:56:14;7.43;;;3.37;;
4732;SDS011;2380;53.668;10.008;2023-09-18T13:58:44;14.33;;;6.67;;
4732;SDS011;2380;53.668;10.008;2023-09-18T14:01:16;21.23;;;9.90;;
4732;SDS011;2380;53.668;10.008;2023-09-18T14:03:47;13.90;;;5.50;;
4732;SDS011;2380;53.668;10.008;2023-09-18T14:06:17;6.90;;;3.17;;
4732;SDS011;2380;53.668;10.008;2023-09-18T14:08:47;17.33;;;8.10;;
4732;SDS011;2380;53.668;10.008;2023-09-18T14:11:17;11.83;;;5.37;;
4732;SDS011;2380;53.668;10.008;2023-09-18T14:13:47;10.07;;;4.87;;
4732;SDS011;2380;53.668;10.008;2023-09-18T14:16:19;16.53;;;7.30;;
4732;SDS011;2380;53.668;10.008;2023-09-18T14:18:49;7.97;;;3.63;;
4732;SDS011;2380;53.668;10.008;2023-09-18T14:21:20;5.50;;;3.33;;
4732;SDS011;2380;53.668;10.008;2023-09-18T14:23:50;14.57;;;6.67;;
4732;SDS011;2380;53.668;10.008;2023-09-18T14:26:20;17.13;;;6.47;;
4732;SDS011;2380;53.668;10.008;2023-09-18T14:28:49;9.57;;;4.60;;
4732;SDS011;2380;53.668;10.008;2023-09-18T14:31:23;9.20;;;3.40;;
4732;SDS011;2380;53.668;10.008;2023-09-18T14:33:53;11.27;;;5.10;;
4732;SDS011;2380;53.668;10.008;2023-09-18T14:36:25;9.57;;;3.90;;
4732;SDS011;2380;53.668;10.008;2023-09-18T14:38:55;13.00;;;5.93;;
4732;SDS011;2380;53.668;10.008;2023-09-18T14:41:25;10.67;;;5.30;;
4732;SDS011;2380;53.668;10.008;2023-09-18T14:43:57;21.23;;;7.37;;
4732;SDS011;2380;53.668;10.008;2023-09-18T14:46:29;15.20;;;7.80;;
4732;SDS011;2380;53.668;10.008;2023-09-18T14:48:59;8.57;;;4.30;;
4732;SDS011;2380;53.668;10.008;2023-09-18T14:51:29;7.10;;;3.53;;
4732;SDS011;2380;53.668;10.008;2023-09-18T14:54:00;15.07;;;4.90;;
4732;SDS011;2380;53.668;10.008;2023-09-18T14:56:28;8.37;;;3.90;;
4732;SDS011;2380;53.668;10.008;2023-09-18T14:58:58;7.90;;;3.73;;
4732;SDS011;2380;53.668;10.008;2023-09-18T15:01:30;9.47;;;3.90;;
4732;SDS011;2380;53.668;10.008;2023-09-18T15:04:00;11.87;;;4.20;;
4732;SDS011;2380;53.668;10.008;2023-09-18T15:06:30;13.30;;;5.87;;
4732;SDS011;2380;53.668;10.008;2023-09-18T15:09:00;6.93;;;3.40;;
4732;SDS011;2380;53.668;10.008;2023-09-18T15:11:30;8.07;;;4.30;;
4732;SDS011;2380;53.668;10.008;2023-09-18T15:14:01;8.10;;;3.73;;
4732;SDS011;2380;53.668;10.008;2023-09-18T15:16:33;10.07;;;4.50;;
4732;SDS011;2380;53.668;10.008;2023-09-18T15:19:03;12.20;;;5.70;;
4732;SDS011;2380;53.668;10.008;2023-09-18T15:21:34;19.70;;;10.23;;